Time,TemperatureF,DewpointF,PressureIn,WindDirection,WindDirectionDegrees,WindSpeedMPH,WindSpeedGustMPH,Humidity,HourlyPrecipIn,Conditions,Clouds,dailyrainin,SoftwareType,DateUTC
2013-08-18 00:00:00,60.3,59.8,30.31,SSW,194,0.0,0.0,98,0.00,,CLR,0.00,VWS V14.01,2013-08-18 04:00:00,
2013-08-18 00:01:00,60.3,59.8,30.31,SSW,194,0.0,0.0,98,0.00,,CLR,0.00,VWS V14.01,2013-08-18 04:01:00,
2013-08-18 00:02:00,60.3,59.8,30.30,SSW,194,0.0,0.0,98,0.00,,CLR,0.00,VWS V14.01,2013-08-18 04:02:00,
2013-08-18 00:07:00,60.2,59.7,30.29,SSW,194,0.0,0.0,98,0.00,,CLR,0.00,VWS V14.01,2013-08-18 04:07:00,
2013-08-18 00:12:00,60.2,59.7,30.30,SSW,194,0.0,0.0,98,0.00,,CLR,0.00,VWS V14.01,2013-08-18 04:12:00,
2013-08-18 00:17:00,60.1,59.6,30.30,SSW,194,0.0,0.0,98,0.00,,CLR,0.00,VWS V14.01,2013-08-18 04:17:00,
2013-08-18 00:22:00,60.1,59.7,30.30,SSW,194,0.0,0.0,98,0.00,,CLR,0.00,VWS V14.01,2013-08-18 04:22:00,
2013-08-18 00:27:00,60.0,59.6,30.30,SSW,194,0.0,0.0,98,0.00,,CLR,0.00,VWS V14.01,2013-08-18 04:27:00,
2013-08-18 00:32:00,59.9,59.5,30.30,SSW,194,0.0,0.0,99,0.00,,CLR,0.00,VWS V14.01,2013-08-18 04:32:00,
2013-08-18 00:37:00,59.9,59.5,30.30,SSW,194,0.0,0.0,99,0.00,,CLR,0.00,VWS V14.01,2013-08-18 04:37:00,
2013-08-18 00:42:00,59.8,59.4,30.30,SSW,194,0.0,0.0,99,0.00,,CLR,0.00,VWS V14.01,2013-08-18 04:42:00,
2013-08-18 00:47:00,59.7,59.4,30.30,SSW,194,0.0,0.0,99,0.00,,CLR,0.00,VWS V14.01,2013-08-18 04:47:00,
2013-08-18 00:52:00,59.7,59.4,30.30,SSW,194,0.0,0.0,99,0.00,,CLR,0.00,VWS V14.01,2013-08-18 04:52:00,
2013-08-18 00:57:00,59.6,59.3,30.30,SSW,194,0.0,0.0,99,0.00,,CLR,0.00,VWS V14.01,2013-08-18 04:57:00,
2013-08-18 01:02:00,59.6,59.3,30.30,SSW,194,0.0,0.0,99,0.00,,CLR,0.00,VWS V14.01,2013-08-18 05:02:00,
2013-08-18 01:07:00,59.5,59.2,30.30,SSW,194,0.0,0.0,99,0.00,,CLR,0.00,VWS V14.01,2013-08-18 05:07:00,
2013-08-18 01:13:00,59.4,59.2,30.29,SSW,194,0.0,0.0,99,0.00,,CLR,0.00,VWS V14.01,2013-08-18 05:13:00,
2013-08-18 01:18:00,59.4,59.2,30.29,SSW,194,0.0,0.0,99,0.00,,CLR,0.00,VWS V14.01,2013-08-18 05:18:00,
2013-08-18 01:23:00,59.5,59.3,30.28,SSW,194,0.0,0.0,99,0.00,,CLR,0.00,VWS V14.01,2013-08-18 05:23:00,
2013-08-18 01:28:00,59.5,59.4,30.29,SSW,194,0.0,0.0,100,0.00,,CLR,0.00,VWS V14.01,2013-08-18 05:28:00,
2013-08-18 01:33:00,59.4,59.3,30.29,SSW,194,0.0,0.0,100,0.00,,CLR,0.00,VWS V14.01,2013-08-18 05:33:00,
2013-08-18 01:38:00,59.3,59.2,30.29,SSW,194,0.0,0.0,100,0.00,,CLR,0.00,VWS V14.01,2013-08-18 05:38:00,
2013-08-18 01:43:00,59.2,59.1,30.30,SSW,194,0.0,0.0,100,0.00,,CLR,0.00,VWS V14.01,2013-08-18 05:43:00,
2013-08-18 01:48:00,59.2,59.1,30.29,SSW,194,0.0,0.0,100,0.00,,CLR,0.00,VWS V14.01,2013-08-18 05:48:00,
2013-08-18 01:53:00,59.1,59.0,30.28,SSW,194,0.0,0.0,100,0.00,,CLR,0.00,VWS V14.01,2013-08-18 05:53:00,
2013-08-18 01:58:00,59.1,59.0,30.29,SSW,194,0.0,0.0,100,0.00,,CLR,0.00,VWS V14.01,2013-08-18 05:58:00,
2013-08-18 02:03:00,59.0,59.0,30.28,SSW,194,0.0,0.0,100,0.00,,CLR,0.00,VWS V14.01,2013-08-18 06:03:00,
2013-08-18 02:08:00,58.9,58.9,30.28,SSW,194,0.0,0.0,100,0.00,,CLR,0.00,VWS V14.01,2013-08-18 06:08:00,
2013-08-18 02:13:00,58.8,58.8,30.28,SSW,194,0.0,0.0,100,0.00,,CLR,0.00,VWS V14.01,2013-08-18 06:13:00,
2013-08-18 02:18:00,58.8,58.8,30.29,SSW,194,0.0,0.0,100,0.00,,CLR,0.00,VWS V14.01,2013-08-18 06:18:00,
2013-08-18 02:23:00,58.8,58.8,30.29,SSW,194,0.0,0.0,100,0.00,,CLR,0.00,VWS V14.01,2013-08-18 06:23:00,
2013-08-18 02:28:00,58.8,58.8,30.28,SSW,194,0.0,0.0,100,0.00,,CLR,0.00,VWS V14.01,2013-08-18 06:28:00,
2013-08-18 02:33:00,58.8,58.8,30.28,SSW,194,0.0,0.0,100,0.00,,CLR,0.00,VWS V14.01,2013-08-18 06:33:00,
2013-08-18 02:38:00,58.7,58.7,30.28,SSW,194,0.0,0.0,100,0.00,,CLR,0.00,VWS V14.01,2013-08-18 06:38:00,
2013-08-18 02:44:00,58.7,58.7,30.29,SSW,194,0.0,0.0,100,0.00,,CLR,0.00,VWS V14.01,2013-08-18 06:44:00,
2013-08-18 02:49:00,58.7,58.7,30.29,SSW,194,0.0,0.0,100,0.00,,CLR,0.00,VWS V14.01,2013-08-18 06:49:00,
2013-08-18 02:54:00,58.6,58.6,30.29,SSW,194,0.0,0.0,100,0.00,,CLR,0.00,VWS V14.01,2013-08-18 06:54:00,
2013-08-18 02:59:00,58.6,58.6,30.28,SSW,194,0.0,0.0,100,0.00,,CLR,0.00,VWS V14.01,2013-08-18 06:59:00,
2013-08-18 03:04:00,58.6,58.6,30.28,SSW,194,0.0,0.0,100,0.00,,CLR,0.00,VWS V14.01,2013-08-18 07:04:00,
2013-08-18 03:09:00,58.6,58.6,30.29,SSW,194,0.0,0.0,100,0.00,,CLR,0.00,VWS V14.01,2013-08-18 07:09:00,
2013-08-18 03:14:00,58.6,58.6,30.28,SSW,194,0.0,0.0,100,0.00,,CLR,0.00,VWS V14.01,2013-08-18 07:14:00,
2013-08-18 03:19:00,58.5,58.5,30.28,SSW,194,0.0,0.0,100,0.00,,CLR,0.00,VWS V14.01,2013-08-18 07:19:00,
2013-08-18 03:24:00,58.4,58.4,30.28,SSW,194,0.0,0.0,100,0.00,,CLR,0.00,VWS V14.01,2013-08-18 07:24:00,
2013-08-18 03:29:00,58.3,58.3,30.28,SSW,194,0.0,0.0,100,0.00,,CLR,0.00,VWS V14.01,2013-08-18 07:29:00,
2013-08-18 03:34:00,58.3,58.3,30.28,SSW,194,0.0,0.0,100,0.00,,CLR,0.00,VWS V14.01,2013-08-18 07:34:00,
2013-08-18 03:39:00,58.3,58.3,30.28,SSW,194,0.0,0.0,100,0.00,,CLR,0.00,VWS V14.01,2013-08-18 07:39:00,
2013-08-18 03:44:00,58.2,58.2,30.28,SSW,194,0.0,0.0,100,0.00,,CLR,0.00,VWS V14.01,2013-08-18 07:44:00,
2013-08-18 03:49:00,58.2,58.2,30.28,SSW,194,0.0,0.0,100,0.00,,CLR,0.00,VWS V14.01,2013-08-18 07:49:00,
2013-08-18 03:54:00,58.2,58.2,30.28,SSW,194,0.0,0.0,100,0.00,,CLR,0.00,VWS V14.01,2013-08-18 07:54:00,
2013-08-18 03:59:00,58.1,58.1,30.29,SSW,194,0.0,0.0,100,0.00,,CLR,0.00,VWS V14.01,2013-08-18 07:59:00,
2013-08-18 04:04:00,58.2,58.2,30.29,SSW,194,0.0,0.0,100,0.00,,CLR,0.00,VWS V14.01,2013-08-18 08:04:00,
2013-08-18 04:09:00,58.2,58.2,30.28,SSW,194,0.0,0.0,100,0.00,,CLR,0.00,VWS V14.01,2013-08-18 08:09:00,
2013-08-18 04:15:00,58.2,58.2,30.28,SSW,194,0.0,0.0,100,0.00,,CLR,0.00,VWS V14.01,2013-08-18 08:15:00,
2013-08-18 04:20:00,58.3,58.3,30.28,SSW,194,0.0,0.0,100,0.00,,CLR,0.00,VWS V14.01,2013-08-18 08:20:00,
2013-08-18 04:25:00,58.3,58.3,30.29,SSW,194,0.0,0.0,100,0.00,,CLR,0.00,VWS V14.01,2013-08-18 08:25:00,
2013-08-18 04:30:00,58.3,58.3,30.28,SSW,194,0.0,0.0,100,0.00,,CLR,0.00,VWS V14.01,2013-08-18 08:30:00,
2013-08-18 04:35:00,58.3,58.3,30.27,SSW,194,0.0,0.0,100,0.00,,CLR,0.00,VWS V14.01,2013-08-18 08:35:00,
2013-08-18 04:40:00,58.3,58.3,30.28,SSW,194,0.0,0.0,100,0.00,,CLR,0.00,VWS V14.01,2013-08-18 08:40:00,
2013-08-18 04:45:00,58.3,58.3,30.28,SSW,194,0.0,0.0,100,0.00,,CLR,0.00,VWS V14.01,2013-08-18 08:45:00,
2013-08-18 04:50:00,58.3,58.3,30.28,SSW,194,0.0,0.0,100,0.00,,CLR,0.00,VWS V14.01,2013-08-18 08:50:00,
2013-08-18 04:55:00,58.4,58.4,30.28,SSW,194,0.0,0.0,100,0.00,,CLR,0.00,VWS V14.01,2013-08-18 08:55:00,
2013-08-18 05:00:00,58.4,58.4,30.28,SSW,194,0.0,0.0,100,0.00,,CLR,0.00,VWS V14.01,2013-08-18 09:00:00,
2013-08-18 05:05:00,58.4,58.4,30.28,SSW,194,0.0,0.0,100,0.00,,CLR,0.00,VWS V14.01,2013-08-18 09:05:00,
2013-08-18 05:10:00,58.4,58.4,30.28,SSW,194,0.0,0.0,100,0.00,,CLR,0.00,VWS V14.01,2013-08-18 09:10:00,
2013-08-18 05:15:00,58.4,58.4,30.28,SSW,194,0.0,0.0,100,0.00,,CLR,0.00,VWS V14.01,2013-08-18 09:15:00,
2013-08-18 05:20:00,58.6,58.6,30.28,SSW,194,0.0,0.0,100,0.00,,CLR,0.00,VWS V14.01,2013-08-18 09:20:00,
2013-08-18 05:25:00,58.6,58.6,30.28,SSW,194,0.0,0.0,100,0.00,,CLR,0.00,VWS V14.01,2013-08-18 09:25:00,
2013-08-18 05:30:00,58.6,58.6,30.27,SSW,194,0.0,0.0,100,0.00,,CLR,0.00,VWS V14.01,2013-08-18 09:30:00,
2013-08-18 05:35:00,58.7,58.7,30.28,SSW,194,0.0,0.0,100,0.00,,CLR,0.00,VWS V14.01,2013-08-18 09:35:00,
2013-08-18 05:40:00,58.8,58.8,30.28,SSW,194,0.0,0.0,100,0.00,,CLR,0.00,VWS V14.01,2013-08-18 09:40:00,
2013-08-18 05:46:00,58.9,58.9,30.28,SSW,194,0.0,0.0,100,0.00,,CLR,0.00,VWS V14.01,2013-08-18 09:46:00,
2013-08-18 05:51:00,59.0,59.0,30.27,SSW,194,0.0,0.0,100,0.00,,CLR,0.00,VWS V14.01,2013-08-18 09:51:00,
2013-08-18 05:56:00,59.0,59.0,30.28,SSW,194,0.0,0.0,100,0.00,,CLR,0.00,VWS V14.01,2013-08-18 09:56:00,
2013-08-18 06:01:00,59.1,59.1,30.28,SSW,194,0.0,0.0,100,0.00,,,0.00,VWS V14.01,2013-08-18 10:01:00,
2013-08-18 06:06:00,59.1,59.1,30.29,SSW,194,0.0,0.0,100,0.00,,,0.00,VWS V14.01,2013-08-18 10:06:00,
2013-08-18 06:11:00,59.1,59.1,30.28,SSW,194,0.0,0.0,100,0.00,,,0.00,VWS V14.01,2013-08-18 10:11:00,
2013-08-18 06:16:00,59.2,59.2,30.29,SSW,194,0.0,0.0,100,0.00,,,0.00,VWS V14.01,2013-08-18 10:16:00,
2013-08-18 06:21:00,59.2,59.2,30.29,SSW,194,0.0,0.0,100,0.00,,,0.00,VWS V14.01,2013-08-18 10:21:00,
2013-08-18 06:26:00,59.4,59.4,30.29,SSW,194,0.0,0.0,100,0.00,,,0.00,VWS V14.01,2013-08-18 10:26:00,
2013-08-18 06:31:00,59.4,59.4,30.29,SSW,194,0.0,0.0,100,0.00,,,0.00,VWS V14.01,2013-08-18 10:31:00,
2013-08-18 06:36:00,59.5,59.5,30.28,SSW,194,0.0,0.0,100,0.00,,,0.00,VWS V14.01,2013-08-18 10:36:00,
2013-08-18 06:41:00,59.6,59.6,30.28,SSW,194,0.0,0.0,100,0.00,,,0.00,VWS V14.01,2013-08-18 10:41:00,
2013-08-18 06:46:00,59.7,59.7,30.28,SSW,194,0.0,0.0,100,0.00,,,0.00,VWS V14.01,2013-08-18 10:46:00,
2013-08-18 06:51:00,59.8,59.8,30.29,SSW,194,0.0,0.0,100,0.00,,,0.00,VWS V14.01,2013-08-18 10:51:00,
2013-08-18 06:56:00,59.9,59.9,30.29,SSW,194,0.0,0.0,100,0.00,,,0.00,VWS V14.01,2013-08-18 10:56:00,
2013-08-18 07:01:00,59.9,59.9,30.29,SSW,194,0.0,0.0,100,0.00,,,0.00,VWS V14.01,2013-08-18 11:01:00,
2013-08-18 07:06:00,60.0,60.0,30.29,SSW,194,0.0,0.0,100,0.00,,,0.00,VWS V14.01,2013-08-18 11:06:00,
2013-08-18 07:11:00,60.1,60.1,30.29,SSW,194,0.0,0.0,100,0.00,,,0.00,VWS V14.01,2013-08-18 11:11:00,
2013-08-18 07:17:00,60.3,60.3,30.30,SSW,194,0.0,0.0,100,0.00,,,0.00,VWS V14.01,2013-08-18 11:17:00,
2013-08-18 07:22:00,60.4,60.4,30.30,SSW,194,0.0,0.0,100,0.00,,,0.00,VWS V14.01,2013-08-18 11:22:00,
2013-08-18 07:27:00,60.5,60.5,30.30,SSW,194,0.0,0.0,100,0.00,,,0.00,VWS V14.01,2013-08-18 11:27:00,
2013-08-18 07:32:00,60.6,60.6,30.29,SSW,194,0.0,0.0,100,0.00,,,0.00,VWS V14.01,2013-08-18 11:32:00,
2013-08-18 07:37:00,60.9,60.9,30.29,SSW,194,0.0,0.0,100,0.00,,,0.00,VWS V14.01,2013-08-18 11:37:00,
2013-08-18 07:42:00,61.1,61.1,30.30,SSW,194,0.0,0.0,100,0.00,,,0.00,VWS V14.01,2013-08-18 11:42:00,
2013-08-18 07:47:00,61.3,61.3,30.29,SSW,194,0.0,0.0,100,0.00,,,0.00,VWS V14.01,2013-08-18 11:47:00,
2013-08-18 07:52:00,61.4,61.4,30.29,SSW,194,0.0,0.0,100,0.00,,,0.00,VWS V14.01,2013-08-18 11:52:00,
2013-08-18 07:57:00,61.5,61.5,30.29,SSW,194,0.0,0.0,100,0.00,,,0.00,VWS V14.01,2013-08-18 11:57:00,
2013-08-18 08:02:00,61.7,61.7,30.30,SSW,194,0.0,0.0,100,0.00,,CLR,0.00,VWS V14.01,2013-08-18 12:02:00,
2013-08-18 08:07:00,61.8,61.8,30.30,SSW,194,0.0,0.0,100,0.00,,CLR,0.00,VWS V14.01,2013-08-18 12:07:00,
2013-08-18 08:12:00,62.0,62.0,30.30,SSW,194,0.0,0.0,100,0.00,,CLR,0.00,VWS V14.01,2013-08-18 12:12:00,
2013-08-18 08:17:00,62.2,62.2,30.29,SSW,194,0.0,0.0,100,0.00,,CLR,0.00,VWS V14.01,2013-08-18 12:17:00,
2013-08-18 08:22:00,62.4,62.4,30.29,SSW,194,0.0,0.0,100,0.00,,CLR,0.00,VWS V14.01,2013-08-18 12:22:00,
2013-08-18 08:27:00,62.6,62.6,30.29,SSW,194,0.0,0.0,100,0.00,,CLR,0.00,VWS V14.01,2013-08-18 12:27:00,
2013-08-18 08:32:00,62.8,62.8,30.30,SSW,194,0.0,0.0,100,0.00,,CLR,0.00,VWS V14.01,2013-08-18 12:32:00,
2013-08-18 08:37:00,63.1,63.1,30.29,SSW,194,0.0,0.0,100,0.00,,CLR,0.00,VWS V14.01,2013-08-18 12:37:00,
2013-08-18 08:42:00,63.5,63.5,30.29,SSW,194,0.0,0.0,100,0.00,,CLR,0.00,VWS V14.01,2013-08-18 12:42:00,
2013-08-18 08:48:00,63.7,63.7,30.28,SSW,194,0.0,0.0,100,0.00,,CLR,0.00,VWS V14.01,2013-08-18 12:48:00,
2013-08-18 08:53:00,63.8,63.8,30.29,SSW,194,0.0,0.0,100,0.00,,CLR,0.00,VWS V14.01,2013-08-18 12:53:00,
2013-08-18 08:58:00,64.0,64.0,30.29,SSW,194,0.0,0.0,100,0.00,,CLR,0.00,VWS V14.01,2013-08-18 12:58:00,
2013-08-18 09:03:00,64.1,64.1,30.29,SSW,194,0.0,0.0,100,0.00,,CLR,0.00,VWS V14.01,2013-08-18 13:03:00,
2013-08-18 09:08:00,64.2,64.2,30.28,SSW,194,0.0,0.0,100,0.00,,CLR,0.00,VWS V14.01,2013-08-18 13:08:00,
2013-08-18 09:13:00,64.4,64.4,30.29,SSW,194,0.0,0.0,100,0.00,,CLR,0.00,VWS V14.01,2013-08-18 13:13:00,
2013-08-18 09:18:00,64.7,64.7,30.29,SSW,194,0.0,0.0,100,0.00,,CLR,0.00,VWS V14.01,2013-08-18 13:18:00,
2013-08-18 09:23:00,65.0,65.0,30.29,SSW,194,0.0,0.0,100,0.00,,CLR,0.00,VWS V14.01,2013-08-18 13:23:00,
2013-08-18 09:28:00,65.3,65.3,30.29,SSW,194,0.0,0.0,100,0.00,,CLR,0.00,VWS V14.01,2013-08-18 13:28:00,
2013-08-18 09:33:00,65.6,65.6,30.28,SSW,194,0.0,0.0,100,0.00,,CLR,0.00,VWS V14.01,2013-08-18 13:33:00,
2013-08-18 09:38:00,66.0,66.0,30.28,SSW,194,0.0,0.0,100,0.00,,CLR,0.00,VWS V14.01,2013-08-18 13:38:00,
2013-08-18 09:43:00,66.2,66.2,30.29,SSW,194,0.0,0.0,100,0.00,,CLR,0.00,VWS V14.01,2013-08-18 13:43:00,
2013-08-18 09:48:00,66.5,66.5,30.30,SSW,194,0.0,0.0,100,0.00,,CLR,0.00,VWS V14.01,2013-08-18 13:48:00,
2013-08-18 09:53:00,66.8,66.8,30.29,SSW,194,0.0,0.0,100,0.00,,CLR,0.00,VWS V14.01,2013-08-18 13:53:00,
2013-08-18 09:58:00,66.9,66.9,30.29,SSW,194,0.0,0.0,100,0.00,,CLR,0.00,VWS V14.01,2013-08-18 13:58:00,
2013-08-18 10:03:00,67.1,66.9,30.29,SSW,194,0.0,0.0,99,0.00,,CLR,0.00,VWS V14.01,2013-08-18 14:03:00,
2013-08-18 10:08:00,67.7,67.5,30.29,SSW,194,0.0,0.0,99,0.00,,CLR,0.00,VWS V14.01,2013-08-18 14:08:00,
2013-08-18 10:14:00,68.0,67.6,30.28,SSW,194,0.0,0.0,98,0.00,,CLR,0.00,VWS V14.01,2013-08-18 14:14:00,
2013-08-18 10:19:00,68.4,67.9,30.29,SSW,194,0.0,0.0,98,0.00,,CLR,0.00,VWS V14.01,2013-08-18 14:19:00,
2013-08-18 10:24:00,68.4,67.7,30.29,SSW,194,0.0,0.0,98,0.00,,CLR,0.00,VWS V14.01,2013-08-18 14:24:00,
2013-08-18 10:29:00,68.7,67.9,30.29,SSW,194,0.0,0.0,97,0.00,,CLR,0.00,VWS V14.01,2013-08-18 14:29:00,
2013-08-18 10:34:00,68.8,67.7,30.29,SSW,194,0.0,0.0,96,0.00,,CLR,0.00,VWS V14.01,2013-08-18 14:34:00,
2013-08-18 10:39:00,69.1,67.9,30.30,SSW,194,0.0,0.0,96,0.00,,CLR,0.00,VWS V14.01,2013-08-18 14:39:00,
2013-08-18 10:44:00,69.1,67.2,30.29,SSW,194,0.0,0.0,94,0.00,,CLR,0.00,VWS V14.01,2013-08-18 14:44:00,
2013-08-18 10:49:00,69.3,67.4,30.29,SSW,194,0.0,0.0,94,0.00,,CLR,0.00,VWS V14.01,2013-08-18 14:49:00,
2013-08-18 10:54:00,69.4,66.5,30.29,SSW,194,0.0,0.0,91,0.00,,CLR,0.00,VWS V14.01,2013-08-18 14:54:00,
2013-08-18 10:59:00,69.8,67.1,30.29,SSW,194,0.0,0.0,91,0.00,,CLR,0.00,VWS V14.01,2013-08-18 14:59:00,
2013-08-18 11:04:00,70.2,67.5,30.28,SSW,194,0.0,0.0,91,0.00,,CLR,0.00,VWS V14.01,2013-08-18 15:04:00,
2013-08-18 11:09:00,70.5,67.7,30.29,SSW,194,0.0,0.0,91,0.00,,CLR,0.00,VWS V14.01,2013-08-18 15:09:00,
2013-08-18 11:14:00,70.4,66.6,30.28,SSW,194,0.0,0.0,88,0.00,,CLR,0.00,VWS V14.01,2013-08-18 15:14:00,
2013-08-18 11:19:00,70.6,67.2,30.28,SSW,194,0.0,0.0,89,0.00,,CLR,0.00,VWS V14.01,2013-08-18 15:19:00,
2013-08-18 11:24:00,70.8,66.9,30.28,SSW,194,0.0,0.0,88,0.00,,CLR,0.00,VWS V14.01,2013-08-18 15:24:00,
2013-08-18 11:29:00,70.7,65.6,30.28,SSW,194,0.0,0.0,84,0.00,,CLR,0.00,VWS V14.01,2013-08-18 15:29:00,
2013-08-18 11:34:00,71.3,66.8,30.28,SSW,194,0.0,0.0,86,0.00,,CLR,0.00,VWS V14.01,2013-08-18 15:34:00,
2013-08-18 11:40:00,71.3,66.6,30.28,SSW,194,0.0,0.0,85,0.00,,CLR,0.00,VWS V14.01,2013-08-18 15:40:00,
2013-08-18 11:45:00,71.5,66.3,30.28,SSW,194,0.0,0.0,84,0.00,,CLR,0.00,VWS V14.01,2013-08-18 15:45:00,
2013-08-18 11:50:00,71.5,65.9,30.28,SSW,194,0.0,0.0,82,0.00,,CLR,0.00,VWS V14.01,2013-08-18 15:50:00,
2013-08-18 11:55:00,71.9,66.2,30.28,SSW,194,0.0,0.0,82,0.00,,CLR,0.00,VWS V14.01,2013-08-18 15:55:00,
2013-08-18 12:00:00,72.2,67.1,30.28,SSW,194,0.0,0.0,84,0.00,,CLR,0.00,VWS V14.01,2013-08-18 16:00:00,
2013-08-18 12:05:00,72.0,66.6,30.28,West,262,0.0,0.0,83,0.00,,CLR,0.00,VWS V14.01,2013-08-18 16:05:00,
2013-08-18 12:10:00,72.0,66.3,30.28,West,262,0.0,0.0,82,0.00,,CLR,0.00,VWS V14.01,2013-08-18 16:10:00,
2013-08-18 12:15:00,72.1,66.3,30.28,West,262,0.0,0.0,82,0.00,,CLR,0.00,VWS V14.01,2013-08-18 16:15:00,
2013-08-18 12:20:00,72.1,66.1,30.28,West,262,0.0,0.0,81,0.00,,CLR,0.00,VWS V14.01,2013-08-18 16:20:00,
2013-08-18 12:25:00,72.3,66.4,30.28,West,262,0.0,0.0,82,0.00,,CLR,0.00,VWS V14.01,2013-08-18 16:25:00,
2013-08-18 12:30:00,72.4,66.6,30.28,West,262,0.0,0.0,82,0.00,,CLR,0.00,VWS V14.01,2013-08-18 16:30:00,
2013-08-18 12:35:00,72.5,67.1,30.28,West,262,0.0,0.0,83,0.00,,CLR,0.00,VWS V14.01,2013-08-18 16:35:00,
2013-08-18 12:41:00,72.1,65.7,30.28,West,262,0.0,0.0,80,0.00,,CLR,0.00,VWS V14.01,2013-08-18 16:41:00,
2013-08-18 12:46:00,72.3,66.0,30.28,West,262,0.0,0.0,81,0.00,,CLR,0.00,VWS V14.01,2013-08-18 16:46:00,
2013-08-18 12:51:00,72.4,65.8,30.28,West,262,0.0,0.0,80,0.00,,CLR,0.00,VWS V14.01,2013-08-18 16:51:00,
2013-08-18 12:56:00,72.7,66.3,30.28,West,262,0.0,0.0,80,0.00,,CLR,0.00,VWS V14.01,2013-08-18 16:56:00,
2013-08-18 13:01:00,73.1,66.5,30.28,West,262,0.0,0.0,80,0.00,,CLR,0.00,VWS V14.01,2013-08-18 17:01:00,
2013-08-18 13:06:00,73.2,66.7,30.27,West,262,0.0,0.0,80,0.00,,CLR,0.00,VWS V14.01,2013-08-18 17:06:00,
2013-08-18 13:11:00,73.5,66.7,30.27,West,262,0.0,0.0,79,0.00,,CLR,0.00,VWS V14.01,2013-08-18 17:11:00,
2013-08-18 13:16:00,74.0,67.3,30.27,West,262,0.0,0.0,80,0.00,,CLR,0.00,VWS V14.01,2013-08-18 17:16:00,
2013-08-18 13:21:00,74.1,66.1,30.27,West,262,0.0,0.0,76,0.00,,CLR,0.00,VWS V14.01,2013-08-18 17:21:00,
2013-08-18 13:26:00,74.2,64.5,30.26,West,262,0.0,0.0,72,0.00,,CLR,0.00,VWS V14.01,2013-08-18 17:26:00,
2013-08-18 13:31:00,74.2,66.9,30.26,West,262,0.0,0.0,78,0.00,,CLR,0.00,VWS V14.01,2013-08-18 17:31:00,
2013-08-18 13:36:00,74.2,64.8,30.26,West,262,0.0,0.0,72,0.00,,CLR,0.00,VWS V14.01,2013-08-18 17:36:00,
2013-08-18 13:41:00,74.5,66.6,30.25,West,262,0.0,0.0,76,0.00,,CLR,0.00,VWS V14.01,2013-08-18 17:41:00,
2013-08-18 13:46:00,74.6,67.1,30.25,West,262,0.0,0.0,78,0.00,,CLR,0.00,VWS V14.01,2013-08-18 17:46:00,
2013-08-18 13:51:00,74.1,66.5,30.26,West,262,0.0,0.0,77,0.00,,CLR,0.00,VWS V14.01,2013-08-18 17:51:00,
2013-08-18 13:56:00,74.2,67.5,30.26,West,262,0.0,0.0,80,0.00,,CLR,0.00,VWS V14.01,2013-08-18 17:56:00,
2013-08-18 14:01:00,73.9,67.5,30.25,West,262,0.0,0.0,80,0.00,,SCT110,0.00,VWS V14.01,2013-08-18 18:01:00,
2013-08-18 14:07:00,73.7,66.8,30.25,West,262,0.0,0.0,79,0.00,,SCT110,0.00,VWS V14.01,2013-08-18 18:07:00,
2013-08-18 14:12:00,73.3,66.5,30.25,West,262,0.0,0.0,79,0.00,,SCT110,0.00,VWS V14.01,2013-08-18 18:12:00,
2013-08-18 14:17:00,73.0,66.7,30.25,West,262,0.0,0.0,81,0.00,,SCT110,0.00,VWS V14.01,2013-08-18 18:17:00,
2013-08-18 14:22:00,72.8,66.7,30.24,West,262,0.0,0.0,81,0.00,,SCT110,0.00,VWS V14.01,2013-08-18 18:22:00,
2013-08-18 14:27:00,72.7,66.8,30.24,West,262,0.0,0.0,82,0.00,,SCT110,0.00,VWS V14.01,2013-08-18 18:27:00,
2013-08-18 14:32:00,72.5,66.8,30.24,West,262,0.0,0.0,82,0.00,,SCT110,0.00,VWS V14.01,2013-08-18 18:32:00,
2013-08-18 14:37:00,72.3,66.9,30.23,West,262,0.0,0.0,83,0.00,,SCT110,0.00,VWS V14.01,2013-08-18 18:37:00,
2013-08-18 14:42:00,72.4,67.0,30.23,West,262,0.0,0.0,83,0.00,,SCT110,0.00,VWS V14.01,2013-08-18 18:42:00,
2013-08-18 14:47:00,72.3,66.9,30.23,West,262,0.0,0.0,83,0.00,,SCT110,0.00,VWS V14.01,2013-08-18 18:47:00,
2013-08-18 14:52:00,72.2,67.0,30.23,West,262,0.0,0.0,84,0.00,,SCT110,0.00,VWS V14.01,2013-08-18 18:52:00,
2013-08-18 14:57:00,71.9,66.5,30.23,West,262,0.0,0.0,83,0.00,,SCT110,0.00,VWS V14.01,2013-08-18 18:57:00,
2013-08-18 15:02:00,71.9,67.1,30.23,West,262,0.0,0.0,85,0.00,,CLR,0.00,VWS V14.01,2013-08-18 19:02:00,
2013-08-18 15:07:00,71.9,66.9,30.22,West,262,0.0,0.0,84,0.00,,CLR,0.00,VWS V14.01,2013-08-18 19:07:00,
2013-08-18 15:12:00,71.9,67.5,30.22,West,262,0.0,0.0,86,0.00,,CLR,0.00,VWS V14.01,2013-08-18 19:12:00,
2013-08-18 15:17:00,71.9,67.8,30.22,West,262,0.0,0.0,87,0.00,,CLR,0.00,VWS V14.01,2013-08-18 19:17:00,
2013-08-18 15:22:00,71.6,67.5,30.22,West,262,0.0,0.0,87,0.00,,CLR,0.00,VWS V14.01,2013-08-18 19:22:00,
2013-08-18 15:28:00,71.2,66.9,30.22,West,262,0.0,0.0,86,0.00,,CLR,0.00,VWS V14.01,2013-08-18 19:28:00,
2013-08-18 15:33:00,71.1,66.9,30.22,West,262,0.0,0.0,87,0.00,,CLR,0.00,VWS V14.01,2013-08-18 19:33:00,
2013-08-18 15:38:00,71.2,67.4,30.22,West,262,0.0,0.0,88,0.00,,CLR,0.00,VWS V14.01,2013-08-18 19:38:00,
2013-08-18 15:43:00,71.3,67.6,30.22,West,262,0.0,0.0,88,0.00,,CLR,0.00,VWS V14.01,2013-08-18 19:43:00,
2013-08-18 15:48:00,71.1,67.3,30.21,West,262,0.0,0.0,88,0.00,,CLR,0.00,VWS V14.01,2013-08-18 19:48:00,
2013-08-18 15:53:00,70.9,67.3,30.20,West,262,0.0,0.0,88,0.00,,CLR,0.00,VWS V14.01,2013-08-18 19:53:00,
2013-08-18 15:58:00,70.8,67.1,30.20,West,262,0.0,0.0,88,0.00,,CLR,0.00,VWS V14.01,2013-08-18 19:58:00,
2013-08-18 16:03:00,70.9,67.5,30.20,West,262,0.0,0.0,89,0.00,,BKN110,0.00,VWS V14.01,2013-08-18 20:03:00,
2013-08-18 16:08:00,70.7,67.4,30.20,West,262,0.0,0.0,89,0.00,,BKN110,0.00,VWS V14.01,2013-08-18 20:08:00,
2013-08-18 16:13:00,70.7,67.4,30.20,West,262,0.0,0.0,89,0.00,,BKN110,0.00,VWS V14.01,2013-08-18 20:13:00,
2013-08-18 16:18:00,70.7,67.5,30.20,West,262,0.0,0.0,90,0.00,,BKN110,0.00,VWS V14.01,2013-08-18 20:18:00,
2013-08-18 16:23:00,70.6,67.3,30.20,West,262,0.0,0.0,89,0.00,,BKN110,0.00,VWS V14.01,2013-08-18 20:23:00,
2013-08-18 16:28:00,70.8,67.8,30.20,West,262,0.0,0.0,90,0.00,,BKN110,0.00,VWS V14.01,2013-08-18 20:28:00,
2013-08-18 16:33:00,70.5,66.9,30.20,West,262,0.0,0.0,88,0.00,,BKN110,0.00,VWS V14.01,2013-08-18 20:33:00,
2013-08-18 16:38:00,70.5,67.0,30.20,West,262,0.0,0.0,89,0.00,,BKN110,0.00,VWS V14.01,2013-08-18 20:38:00,
2013-08-18 16:43:00,70.5,67.0,30.20,West,262,0.0,0.0,89,0.00,,BKN110,0.00,VWS V14.01,2013-08-18 20:43:00,
2013-08-18 16:48:00,70.4,67.0,30.20,West,262,0.0,0.0,89,0.00,,BKN110,0.00,VWS V14.01,2013-08-18 20:48:00,
2013-08-18 16:54:00,70.2,66.8,30.19,West,262,0.0,0.0,89,0.00,,BKN110,0.00,VWS V14.01,2013-08-18 20:54:00,
2013-08-18 16:59:00,70.0,66.7,30.19,West,262,0.0,0.0,89,0.00,,BKN110,0.00,VWS V14.01,2013-08-18 20:59:00,
2013-08-18 17:04:00,69.9,66.6,30.19,West,262,0.0,0.0,89,0.00,,-RA,0.00,VWS V14.01,2013-08-18 21:04:00,
2013-08-18 17:09:00,69.8,66.8,30.20,West,262,0.0,0.0,90,0.00,,-RA,0.00,VWS V14.01,2013-08-18 21:09:00,
2013-08-18 17:14:00,69.8,66.8,30.19,West,262,0.0,0.0,90,0.01,,-RA,0.01,VWS V14.01,2013-08-18 21:14:00,
2013-08-18 17:19:00,69.6,66.7,30.19,West,262,0.0,0.0,91,0.01,,-RA,0.01,VWS V14.01,2013-08-18 21:19:00,
2013-08-18 17:24:00,69.4,66.6,30.19,West,262,0.0,0.0,91,0.01,,-RA,0.01,VWS V14.01,2013-08-18 21:24:00,
2013-08-18 17:29:00,69.4,66.8,30.19,West,262,0.0,0.0,91,0.01,,-RA,0.01,VWS V14.01,2013-08-18 21:29:00,
2013-08-18 17:34:00,69.2,66.6,30.19,West,262,0.0,0.0,92,0.01,,-RA,0.01,VWS V14.01,2013-08-18 21:34:00,
2013-08-18 17:39:00,69.0,66.5,30.19,West,262,0.0,0.0,92,0.01,,-RA,0.01,VWS V14.01,2013-08-18 21:39:00,
2013-08-18 17:44:00,69.1,66.7,30.19,West,262,0.0,0.0,92,0.01,,-RA,0.01,VWS V14.01,2013-08-18 21:44:00,
2013-08-18 17:49:00,69.0,66.7,30.19,West,262,0.0,0.0,92,0.01,,-RA,0.01,VWS V14.01,2013-08-18 21:49:00,
2013-08-18 17:54:00,68.9,66.6,30.18,West,262,0.0,0.0,92,0.01,,-RA,0.01,VWS V14.01,2013-08-18 21:54:00,
2013-08-18 17:59:00,68.6,66.4,30.19,West,262,0.0,0.0,93,0.01,,-RA,0.01,VWS V14.01,2013-08-18 21:59:00,
2013-08-18 18:04:00,68.4,66.2,30.19,West,262,0.0,0.0,93,0.01,,FEW100,0.01,VWS V14.01,2013-08-18 22:04:00,
2013-08-18 18:09:00,68.4,66.3,30.18,West,262,0.0,0.0,93,0.01,,FEW100,0.01,VWS V14.01,2013-08-18 22:09:00,
2013-08-18 18:14:00,68.2,66.1,30.18,West,262,0.0,0.0,93,0.01,,FEW100,0.01,VWS V14.01,2013-08-18 22:14:00,
2013-08-18 20:12:00,64.9,63.4,30.18,West,262,0.0,0.0,95,0.00,,FEW100,0.01,VWS V14.01,2013-08-19 00:12:00,
2013-08-18 20:17:00,64.8,63.3,30.18,West,262,0.0,0.0,95,0.00,,FEW100,0.01,VWS V14.01,2013-08-19 00:17:00,
2013-08-18 20:22:00,64.7,63.3,30.18,West,262,0.0,0.0,95,0.00,,FEW100,0.01,VWS V14.01,2013-08-19 00:22:00,
2013-08-18 20:27:00,64.6,63.2,30.18,West,262,0.0,0.0,95,0.00,,FEW100,0.01,VWS V14.01,2013-08-19 00:27:00,
2013-08-18 20:32:00,64.6,63.3,30.18,West,262,0.0,0.0,95,0.00,,FEW100,0.01,VWS V14.01,2013-08-19 00:32:00,
2013-08-18 20:37:00,64.4,63.1,30.18,West,262,0.0,0.0,96,0.00,,FEW100,0.01,VWS V14.01,2013-08-19 00:37:00,
2013-08-18 20:42:00,64.4,63.2,30.18,West,262,0.0,0.0,96,0.00,,FEW100,0.01,VWS V14.01,2013-08-19 00:42:00,
2013-08-18 20:47:00,64.3,63.1,30.19,West,262,0.0,0.0,96,0.00,,FEW100,0.01,VWS V14.01,2013-08-19 00:47:00,
2013-08-18 20:52:00,64.2,63.0,30.19,West,262,0.0,0.0,96,0.00,,FEW100,0.01,VWS V14.01,2013-08-19 00:52:00,
2013-08-18 20:57:00,64.1,62.9,30.18,West,262,0.0,0.0,96,0.00,,FEW100,0.01,VWS V14.01,2013-08-19 00:57:00,
2013-08-18 21:02:00,64.0,62.9,30.18,West,262,0.0,0.0,96,0.00,,CLR,0.01,VWS V14.01,2013-08-19 01:02:00,
2013-08-18 21:08:00,63.9,62.8,30.18,West,262,0.0,0.0,96,0.00,,CLR,0.01,VWS V14.01,2013-08-19 01:08:00,
2013-08-18 21:13:00,63.7,62.7,30.18,West,262,0.0,0.0,96,0.00,,CLR,0.01,VWS V14.01,2013-08-19 01:13:00,
2013-08-18 21:18:00,63.7,62.7,30.17,West,262,0.0,0.0,96,0.00,,CLR,0.01,VWS V14.01,2013-08-19 01:18:00,
2013-08-18 21:50:00,62.9,62.1,30.17,West,262,0.0,0.0,97,0.00,,CLR,0.01,VWS V14.01,2013-08-19 01:50:00,
2013-08-18 21:55:00,62.7,62.0,30.17,West,262,0.0,0.0,97,0.00,,CLR,0.01,VWS V14.01,2013-08-19 01:55:00,
2013-08-18 22:00:00,62.6,61.9,30.16,West,262,0.0,0.0,98,0.00,,CLR,0.01,VWS V14.01,2013-08-19 02:00:00,
2013-08-18 22:05:00,62.5,61.8,30.17,West,262,0.0,0.0,98,0.00,,CLR,0.01,VWS V14.01,2013-08-19 02:05:00,
2013-08-18 22:10:00,62.4,61.7,30.17,West,262,0.0,0.0,98,0.00,,CLR,0.01,VWS V14.01,2013-08-19 02:10:00,
2013-08-18 22:15:00,62.3,61.7,30.17,West,262,0.0,0.0,98,0.00,,CLR,0.01,VWS V14.01,2013-08-19 02:15:00,
2013-08-18 22:20:00,62.2,61.6,30.17,West,262,0.0,0.0,98,0.00,,CLR,0.01,VWS V14.01,2013-08-19 02:20:00,
2013-08-18 22:25:00,62.0,61.4,30.17,West,262,0.0,0.0,98,0.00,,CLR,0.01,VWS V14.01,2013-08-19 02:25:00,
2013-08-18 22:30:00,62.0,61.5,30.18,West,262,0.0,0.0,98,0.00,,CLR,0.01,VWS V14.01,2013-08-19 02:30:00,
2013-08-18 22:35:00,61.8,61.3,30.17,West,262,0.0,0.0,98,0.00,,CLR,0.01,VWS V14.01,2013-08-19 02:35:00,
2013-08-18 22:41:00,61.7,61.2,30.18,West,262,0.0,0.0,98,0.00,,CLR,0.01,VWS V14.01,2013-08-19 02:41:00,
2013-08-18 22:46:00,61.5,61.0,30.18,West,262,0.0,0.0,98,0.00,,CLR,0.01,VWS V14.01,2013-08-19 02:46:00,
2013-08-18 22:51:00,61.3,60.8,30.18,West,262,0.0,0.0,98,0.00,,CLR,0.01,VWS V14.01,2013-08-19 02:51:00,
2013-08-18 22:56:00,61.2,60.8,30.17,West,262,0.0,0.0,98,0.00,,CLR,0.01,VWS V14.01,2013-08-19 02:56:00,
2013-08-18 23:01:00,61.2,60.8,30.18,West,262,0.0,0.0,99,0.00,,CLR,0.01,VWS V14.01,2013-08-19 03:01:00,
2013-08-18 23:06:00,61.1,60.7,30.18,West,262,0.0,0.0,99,0.00,,CLR,0.01,VWS V14.01,2013-08-19 03:06:00,
2013-08-18 23:11:00,61.0,60.6,30.18,West,262,0.0,0.0,99,0.00,,CLR,0.01,VWS V14.01,2013-08-19 03:11:00,
2013-08-18 23:16:00,61.0,60.7,30.18,West,262,0.0,0.0,99,0.00,,CLR,0.01,VWS V14.01,2013-08-19 03:16:00,
2013-08-18 23:21:00,60.9,60.6,30.18,West,262,0.0,0.0,99,0.00,,CLR,0.01,VWS V14.01,2013-08-19 03:21:00,
2013-08-18 23:26:00,60.8,60.5,30.18,West,262,0.0,0.0,99,0.00,,CLR,0.01,VWS V14.01,2013-08-19 03:26:00,
2013-08-18 23:31:00,60.7,60.5,30.18,West,262,0.0,0.0,99,0.00,,CLR,0.01,VWS V14.01,2013-08-19 03:31:00,
2013-08-18 23:36:00,60.7,60.5,30.18,West,262,0.0,0.0,99,0.00,,CLR,0.01,VWS V14.01,2013-08-19 03:36:00,
2013-08-18 23:41:00,60.7,60.5,30.17,West,262,0.0,0.0,99,0.00,,CLR,0.01,VWS V14.01,2013-08-19 03:41:00,
2013-08-18 23:46:00,60.6,60.4,30.17,West,262,0.0,0.0,99,0.00,,CLR,0.01,VWS V14.01,2013-08-19 03:46:00,
2013-08-18 23:51:00,60.5,60.4,30.16,West,262,0.0,0.0,100,0.00,,CLR,0.01,VWS V14.01,2013-08-19 03:51:00,
2013-08-18 23:57:00,60.5,60.4,30.16,West,262,0.0,0.0,100,0.00,,CLR,0.01,VWS V14.01,2013-08-19 03:57:00,